CheckWX is a tool to help pilots better visualize weather data.  It is not intended as a substitute for an official pre-flight weather briefing.

00:36:17 UTC

EBOS METAR
Ostend-Bruges International Airport
Ostend, Belgium
Current

16 mins ago

EBOS 190020Z 07009KT CAVOK 12/04 Q1025 NOSIG
Observed
Apr-19 @ 00:20 UTC
Wind
  • 070° at 9 KTS
Visibility
10,000+ meters
Flight Rules
VFR
Cloud Levels
  • Clear skies
Temperature
12°C / 54°F
Dewpoint
C / 39°F
Humidity
58%
Altimeter
30.27" Hg
Pressure
1024.92 hPa
Previous

46 mins ago

EBOS 182350Z 07010KT CAVOK 12/04 Q1025 NOSIG
Observed
Apr-18 @ 23:50 UTC
Wind
  • 070° at 10 KTS
Visibility
10,000+ meters
Flight Rules
VFR
Cloud Levels
  • Clear skies
Temperature
12°C / 54°F
Dewpoint
C / 39°F
Humidity
58%
Altimeter
30.27" Hg
Pressure
1024.92 hPa
Previous

1 hour ago

EBOS 182320Z 07010KT CAVOK 13/04 Q1025 NOSIG
Observed
Apr-18 @ 23:20 UTC
Wind
  • 070° at 10 KTS
Visibility
10,000+ meters
Flight Rules
VFR
Cloud Levels
  • Clear skies
Temperature
13°C / 55°F
Dewpoint
C / 39°F
Humidity
55%
Altimeter
30.27" Hg
Pressure
1024.92 hPa